sensor_id;sensor_type;location;lat;lon;timestamp;P1;durP1;ratioP1;P2;durP2;ratioP2
75342;SDS011;63936;51.006;13.764;2023-02-13T00:00:02;20;;;9;;
75342;SDS011;63936;51.006;13.764;2023-02-13T00:02:01;20;;;9;;
75342;SDS011;63936;51.006;13.764;2023-02-13T00:04:01;20;;;9;;
75342;SDS011;63936;51.006;13.764;2023-02-13T00:06:01;21;;;10;;
75342;SDS011;63936;51.006;13.764;2023-02-13T00:08:01;19;;;9;;
75342;SDS011;63936;51.006;13.764;2023-02-13T00:10:02;20;;;9;;
75342;SDS011;63936;51.006;13.764;2023-02-13T00:12:01;19;;;9;;
75342;SDS011;63936;51.006;13.764;2023-02-13T00:14:01;21;;;10;;
75342;SDS011;63936;51.006;13.764;2023-02-13T00:16:02;23;;;10;;
75342;SDS011;63936;51.006;13.764;2023-02-13T00:18:02;24;;;10;;
75342;SDS011;63936;51.006;13.764;2023-02-13T00:20:03;21;;;9;;
75342;SDS011;63936;51.006;13.764;2023-02-13T00:22:01;21;;;9;;
75342;SDS011;63936;51.006;13.764;2023-02-13T00:24:01;20;;;8;;
75342;SDS011;63936;51.006;13.764;2023-02-13T00:26:04;21;;;8;;
75342;SDS011;63936;51.006;13.764;2023-02-13T00:28:01;25;;;10;;
75342;SDS011;63936;51.006;13.764;2023-02-13T00:30:02;28;;;10;;
75342;SDS011;63936;51.006;13.764;2023-02-13T00:32:01;21;;;9;;
75342;SDS011;63936;51.006;13.764;2023-02-13T00:34:01;21;;;10;;
75342;SDS011;63936;51.006;13.764;2023-02-13T00:36:02;19;;;9;;
75342;SDS011;63936;51.006;13.764;2023-02-13T00:38:01;24;;;11;;
75342;SDS011;63936;51.006;13.764;2023-02-13T00:40:03;22;;;10;;
75342;SDS011;63936;51.006;13.764;2023-02-13T00:42:01;22;;;10;;
75342;SDS011;63936;51.006;13.764;2023-02-13T00:44:01;22;;;10;;
75342;SDS011;63936;51.006;13.764;2023-02-13T00:46:01;22;;;10;;
75342;SDS011;63936;51.006;13.764;2023-02-13T00:48:01;19;;;9;;
75342;SDS011;63936;51.006;13.764;2023-02-13T00:50:03;20;;;10;;
75342;SDS011;63936;51.006;13.764;2023-02-13T00:52:01;19;;;9;;
75342;SDS011;63936;51.006;13.764;2023-02-13T00:54:01;20;;;9;;
75342;SDS011;63936;51.006;13.764;2023-02-13T00:56:02;22;;;10;;
75342;SDS011;63936;51.006;13.764;2023-02-13T00:58:01;23;;;10;;
75342;SDS011;63936;51.006;13.764;2023-02-13T01:00:03;21;;;10;;
75342;SDS011;63936;51.006;13.764;2023-02-13T01:02:04;26;;;11;;
75342;SDS011;63936;51.006;13.764;2023-02-13T01:04:03;31;;;12;;
75342;SDS011;63936;51.006;13.764;2023-02-13T01:06:05;38;;;12;;
75342;SDS011;63936;51.006;13.764;2023-02-13T01:08:04;28;;;11;;
75342;SDS011;63936;51.006;13.764;2023-02-13T01:10:09;24;;;11;;
75342;SDS011;63936;51.006;13.764;2023-02-13T01:12:02;24;;;11;;
75342;SDS011;63936;51.006;13.764;2023-02-13T01:14:02;24;;;11;;
75342;SDS011;63936;51.006;13.764;2023-02-13T01:16:02;22;;;10;;
75342;SDS011;63936;51.006;13.764;2023-02-13T01:18:02;24;;;11;;
75342;SDS011;63936;51.006;13.764;2023-02-13T01:20:03;24;;;11;;
75342;SDS011;63936;51.006;13.764;2023-02-13T01:22:02;24;;;11;;
75342;SDS011;63936;51.006;13.764;2023-02-13T01:24:02;24;;;11;;
75342;SDS011;63936;51.006;13.764;2023-02-13T01:26:02;25;;;11;;
75342;SDS011;63936;51.006;13.764;2023-02-13T01:28:03;22;;;11;;
75342;SDS011;63936;51.006;13.764;2023-02-13T01:30:08;25;;;12;;
75342;SDS011;63936;51.006;13.764;2023-02-13T01:32:01;23;;;11;;
75342;SDS011;63936;51.006;13.764;2023-02-13T01:34:03;22;;;11;;
75342;SDS011;63936;51.006;13.764;2023-02-13T01:36:06;23;;;11;;
75342;SDS011;63936;51.006;13.764;2023-02-13T01:38:04;23;;;12;;
75342;SDS011;63936;51.006;13.764;2023-02-13T01:40:06;20;;;10;;
75342;SDS011;63936;51.006;13.764;2023-02-13T01:42:04;22;;;11;;
75342;SDS011;63936;51.006;13.764;2023-02-13T01:44:43;25;;;11;;
75342;SDS011;63936;51.006;13.764;2023-02-13T01:46:03;26;;;11;;
75342;SDS011;63936;51.006;13.764;2023-02-13T01:48:03;23;;;11;;
75342;SDS011;63936;51.006;13.764;2023-02-13T01:50:09;22;;;10;;
75342;SDS011;63936;51.006;13.764;2023-02-13T01:52:06;22;;;10;;
75342;SDS011;63936;51.006;13.764;2023-02-13T01:54:05;24;;;11;;
75342;SDS011;63936;51.006;13.764;2023-02-13T01:56:05;27;;;11;;
75342;SDS011;63936;51.006;13.764;2023-02-13T01:58:03;25;;;11;;
75342;SDS011;63936;51.006;13.764;2023-02-13T02:00:06;26;;;11;;
75342;SDS011;63936;51.006;13.764;2023-02-13T02:02:02;28;;;12;;
75342;SDS011;63936;51.006;13.764;2023-02-13T02:04:04;21;;;11;;
75342;SDS011;63936;51.006;13.764;2023-02-13T02:06:02;21;;;10;;
75342;SDS011;63936;51.006;13.764;2023-02-13T02:08:03;26;;;11;;
75342;SDS011;63936;51.006;13.764;2023-02-13T02:10:06;25;;;11;;
75342;SDS011;63936;51.006;13.764;2023-02-13T02:12:03;30;;;12;;
75342;SDS011;63936;51.006;13.764;2023-02-13T02:14:02;29;;;12;;
75342;SDS011;63936;51.006;13.764;2023-02-13T02:16:01;29;;;12;;
75342;SDS011;63936;51.006;13.764;2023-02-13T02:18:01;30;;;12;;
75342;SDS011;63936;51.006;13.764;2023-02-13T02:20:06;31;;;12;;
75342;SDS011;63936;51.006;13.764;2023-02-13T02:22:07;32;;;13;;
75342;SDS011;63936;51.006;13.764;2023-02-13T02:24:21;36;;;12;;
75342;SDS011;63936;51.006;13.764;2023-02-13T02:26:15;35;;;13;;
75342;SDS011;63936;51.006;13.764;2023-02-13T02:28:05;28;;;12;;
75342;SDS011;63936;51.006;13.764;2023-02-13T02:30:24;30;;;12;;
75342;SDS011;63936;51.006;13.764;2023-02-13T02:32:07;29;;;12;;
75342;SDS011;63936;51.006;13.764;2023-02-13T02:34:05;32;;;12;;
75342;SDS011;63936;51.006;13.764;2023-02-13T02:36:05;32;;;12;;
75342;SDS011;63936;51.006;13.764;2023-02-13T02:38:05;36;;;14;;
75342;SDS011;63936;51.006;13.764;2023-02-13T02:40:07;32;;;13;;
75342;SDS011;63936;51.006;13.764;2023-02-13T02:42:04;34;;;13;;
75342;SDS011;63936;51.006;13.764;2023-02-13T02:44:03;32;;;13;;
75342;SDS011;63936;51.006;13.764;2023-02-13T02:46:04;32;;;12;;
75342;SDS011;63936;51.006;13.764;2023-02-13T02:48:02;33;;;12;;
75342;SDS011;63936;51.006;13.764;2023-02-13T02:50:07;32;;;13;;
75342;SDS011;63936;51.006;13.764;2023-02-13T02:52:02;29;;;13;;
75342;SDS011;63936;51.006;13.764;2023-02-13T02:54:02;31;;;13;;
75342;SDS011;63936;51.006;13.764;2023-02-13T02:56:03;31;;;13;;
75342;SDS011;63936;51.006;13.764;2023-02-13T02:58:02;32;;;14;;
75342;SDS011;63936;51.006;13.764;2023-02-13T03:00:02;33;;;14;;
75342;SDS011;63936;51.006;13.764;2023-02-13T03:02:01;32;;;14;;
75342;SDS011;63936;51.006;13.764;2023-02-13T03:04:02;31;;;13;;
75342;SDS011;63936;51.006;13.764;2023-02-13T03:06:03;31;;;14;;
75342;SDS011;63936;51.006;13.764;2023-02-13T03:08:02;32;;;13;;
75342;SDS011;63936;51.006;13.764;2023-02-13T03:10:03;30;;;13;;
75342;SDS011;63936;51.006;13.764;2023-02-13T03:12:01;26;;;12;;
75342;SDS011;63936;51.006;13.764;2023-02-13T03:14:01;30;;;13;;
75342;SDS011;63936;51.006;13.764;2023-02-13T03:16:02;35;;;14;;
75342;SDS011;63936;51.006;13.764;2023-02-13T03:18:02;32;;;15;;
75342;SDS011;63936;51.006;13.764;2023-02-13T03:20:07;27;;;13;;
75342;SDS011;63936;51.006;13.764;2023-02-13T03:22:02;31;;;14;;
75342;SDS011;63936;51.006;13.764;2023-02-13T03:24:03;30;;;13;;
75342;SDS011;63936;51.006;13.764;2023-02-13T03:26:05;31;;;13;;
75342;SDS011;63936;51.006;13.764;2023-02-13T03:28:04;32;;;12;;
75342;SDS011;63936;51.006;13.764;2023-02-13T03:30:02;29;;;12;;
75342;SDS011;63936;51.006;13.764;2023-02-13T03:32:03;28;;;12;;
75342;SDS011;63936;51.006;13.764;2023-02-13T03:34:03;30;;;13;;
75342;SDS011;63936;51.006;13.764;2023-02-13T03:36:03;26;;;11;;
75342;SDS011;63936;51.006;13.764;2023-02-13T03:38:04;27;;;11;;
75342;SDS011;63936;51.006;13.764;2023-02-13T03:40:02;22;;;10;;
75342;SDS011;63936;51.006;13.764;2023-02-13T03:42:03;26;;;12;;
75342;SDS011;63936;51.006;13.764;2023-02-13T03:44:04;29;;;13;;
75342;SDS011;63936;51.006;13.764;2023-02-13T03:46:01;29;;;13;;
75342;SDS011;63936;51.006;13.764;2023-02-13T03:48:02;30;;;12;;
75342;SDS011;63936;51.006;13.764;2023-02-13T03:50:02;31;;;13;;
75342;SDS011;63936;51.006;13.764;2023-02-13T03:52:03;27;;;12;;
75342;SDS011;63936;51.006;13.764;2023-02-13T03:54:03;26;;;12;;
75342;SDS011;63936;51.006;13.764;2023-02-13T03:56:01;30;;;12;;
75342;SDS011;63936;51.006;13.764;2023-02-13T03:58:02;26;;;12;;
75342;SDS011;63936;51.006;13.764;2023-02-13T04:00:04;28;;;13;;
75342;SDS011;63936;51.006;13.764;2023-02-13T04:02:04;27;;;12;;
75342;SDS011;63936;51.006;13.764;2023-02-13T04:04:04;25;;;11;;
75342;SDS011;63936;51.006;13.764;2023-02-13T04:06:03;28;;;12;;
75342;SDS011;63936;51.006;13.764;2023-02-13T04:08:02;29;;;13;;
75342;SDS011;63936;51.006;13.764;2023-02-13T04:10:04;29;;;13;;
75342;SDS011;63936;51.006;13.764;2023-02-13T04:12:04;28;;;12;;
75342;SDS011;63936;51.006;13.764;2023-02-13T04:14:03;29;;;13;;
75342;SDS011;63936;51.006;13.764;2023-02-13T04:16:02;28;;;12;;
75342;SDS011;63936;51.006;13.764;2023-02-13T04:18:03;28;;;12;;
75342;SDS011;63936;51.006;13.764;2023-02-13T04:20:03;25;;;12;;
75342;SDS011;63936;51.006;13.764;2023-02-13T04:22:01;28;;;13;;
75342;SDS011;63936;51.006;13.764;2023-02-13T04:24:01;33;;;13;;
75342;SDS011;63936;51.006;13.764;2023-02-13T04:26:02;33;;;13;;
75342;SDS011;63936;51.006;13.764;2023-02-13T04:28:01;34;;;13;;
75342;SDS011;63936;51.006;13.764;2023-02-13T04:30:02;34;;;13;;
75342;SDS011;63936;51.006;13.764;2023-02-13T04:32:01;32;;;13;;
75342;SDS011;63936;51.006;13.764;2023-02-13T04:34:01;31;;;13;;
75342;SDS011;63936;51.006;13.764;2023-02-13T04:36:01;26;;;12;;
75342;SDS011;63936;51.006;13.764;2023-02-13T04:38:02;31;;;13;;
75342;SDS011;63936;51.006;13.764;2023-02-13T04:40:02;30;;;12;;
75342;SDS011;63936;51.006;13.764;2023-02-13T04:42:01;32;;;14;;
75342;SDS011;63936;51.006;13.764;2023-02-13T04:44:01;30;;;13;;
75342;SDS011;63936;51.006;13.764;2023-02-13T04:46:01;32;;;13;;
75342;SDS011;63936;51.006;13.764;2023-02-13T04:48:01;28;;;11;;
75342;SDS011;63936;51.006;13.764;2023-02-13T04:50:01;29;;;13;;
75342;SDS011;63936;51.006;13.764;2023-02-13T04:52:01;30;;;13;;
75342;SDS011;63936;51.006;13.764;2023-02-13T04:54:01;34;;;14;;
75342;SDS011;63936;51.006;13.764;2023-02-13T04:56:01;27;;;12;;
75342;SDS011;63936;51.006;13.764;2023-02-13T04:58:01;30;;;12;;
75342;SDS011;63936;51.006;13.764;2023-02-13T05:00:02;26;;;12;;
75342;SDS011;63936;51.006;13.764;2023-02-13T05:02:01;26;;;12;;
75342;SDS011;63936;51.006;13.764;2023-02-13T05:04:01;26;;;11;;
75342;SDS011;63936;51.006;13.764;2023-02-13T05:06:02;24;;;11;;
75342;SDS011;63936;51.006;13.764;2023-02-13T05:08:02;24;;;12;;
75342;SDS011;63936;51.006;13.764;2023-02-13T05:10:02;23;;;10;;
75342;SDS011;63936;51.006;13.764;2023-02-13T05:12:01;27;;;13;;
75342;SDS011;63936;51.006;13.764;2023-02-13T05:14:01;19;;;10;;
75342;SDS011;63936;51.006;13.764;2023-02-13T05:16:01;27;;;12;;
75342;SDS011;63936;51.006;13.764;2023-02-13T05:18:01;23;;;11;;
75342;SDS011;63936;51.006;13.764;2023-02-13T05:20:03;23;;;11;;
75342;SDS011;63936;51.006;13.764;2023-02-13T05:22:02;21;;;10;;
75342;SDS011;63936;51.006;13.764;2023-02-13T05:24:02;21;;;10;;
75342;SDS011;63936;51.006;13.764;2023-02-13T05:26:01;24;;;11;;
75342;SDS011;63936;51.006;13.764;2023-02-13T05:28:02;27;;;12;;
75342;SDS011;63936;51.006;13.764;2023-02-13T05:30:03;21;;;11;;
75342;SDS011;63936;51.006;13.764;2023-02-13T05:32:01;21;;;11;;
75342;SDS011;63936;51.006;13.764;2023-02-13T05:34:01;23;;;10;;
75342;SDS011;63936;51.006;13.764;2023-02-13T05:36:01;23;;;10;;
75342;SDS011;63936;51.006;13.764;2023-02-13T05:38:01;20;;;10;;
75342;SDS011;63936;51.006;13.764;2023-02-13T05:40:03;22;;;11;;
75342;SDS011;63936;51.006;13.764;2023-02-13T05:42:01;21;;;9;;
75342;SDS011;63936;51.006;13.764;2023-02-13T05:44:01;22;;;10;;
75342;SDS011;63936;51.006;13.764;2023-02-13T05:46:02;19;;;10;;
75342;SDS011;63936;51.006;13.764;2023-02-13T05:48:01;22;;;11;;
75342;SDS011;63936;51.006;13.764;2023-02-13T05:50:02;24;;;10;;
75342;SDS011;63936;51.006;13.764;2023-02-13T05:52:01;24;;;10;;
75342;SDS011;63936;51.006;13.764;2023-02-13T05:54:01;22;;;11;;
75342;SDS011;63936;51.006;13.764;2023-02-13T05:56:01;21;;;10;;
75342;SDS011;63936;51.006;13.764;2023-02-13T05:58:01;24;;;10;;
75342;SDS011;63936;51.006;13.764;2023-02-13T06:00:03;24;;;11;;
75342;SDS011;63936;51.006;13.764;2023-02-13T06:02:02;21;;;10;;
75342;SDS011;63936;51.006;13.764;2023-02-13T06:04:01;22;;;10;;
75342;SDS011;63936;51.006;13.764;2023-02-13T06:06:02;23;;;11;;
75342;SDS011;63936;51.006;13.764;2023-02-13T06:08:02;23;;;11;;
75342;SDS011;63936;51.006;13.764;2023-02-13T06:10:03;22;;;10;;
75342;SDS011;63936;51.006;13.764;2023-02-13T06:12:01;23;;;10;;
75342;SDS011;63936;51.006;13.764;2023-02-13T06:14:01;25;;;11;;
75342;SDS011;63936;51.006;13.764;2023-02-13T06:16:02;22;;;11;;
75342;SDS011;63936;51.006;13.764;2023-02-13T06:18:01;23;;;11;;
75342;SDS011;63936;51.006;13.764;2023-02-13T06:20:03;25;;;10;;
75342;SDS011;63936;51.006;13.764;2023-02-13T06:22:01;22;;;9;;
75342;SDS011;63936;51.006;13.764;2023-02-13T06:24:02;24;;;10;;
75342;SDS011;63936;51.006;13.764;2023-02-13T06:26:02;26;;;11;;
75342;SDS011;63936;51.006;13.764;2023-02-13T06:28:02;24;;;10;;
75342;SDS011;63936;51.006;13.764;2023-02-13T06:30:03;24;;;10;;
75342;SDS011;63936;51.006;13.764;2023-02-13T06:32:02;25;;;10;;
75342;SDS011;63936;51.006;13.764;2023-02-13T06:34:01;25;;;11;;
75342;SDS011;63936;51.006;13.764;2023-02-13T06:36:02;25;;;10;;
75342;SDS011;63936;51.006;13.764;2023-02-13T06:38:02;24;;;10;;
75342;SDS011;63936;51.006;13.764;2023-02-13T06:40:04;25;;;10;;
75342;SDS011;63936;51.006;13.764;2023-02-13T06:42:01;27;;;11;;
75342;SDS011;63936;51.006;13.764;2023-02-13T06:44:01;25;;;10;;
75342;SDS011;63936;51.006;13.764;2023-02-13T06:46:03;23;;;10;;
75342;SDS011;63936;51.006;13.764;2023-02-13T06:48:01;23;;;10;;
75342;SDS011;63936;51.006;13.764;2023-02-13T06:50:02;24;;;10;;
75342;SDS011;63936;51.006;13.764;2023-02-13T06:52:02;22;;;9;;
75342;SDS011;63936;51.006;13.764;2023-02-13T06:54:02;21;;;9;;
75342;SDS011;63936;51.006;13.764;2023-02-13T06:56:02;26;;;10;;
75342;SDS011;63936;51.006;13.764;2023-02-13T06:58:01;26;;;11;;
75342;SDS011;63936;51.006;13.764;2023-02-13T07:00:03;28;;;11;;
75342;SDS011;63936;51.006;13.764;2023-02-13T07:02:01;28;;;11;;
75342;SDS011;63936;51.006;13.764;2023-02-13T07:04:01;24;;;10;;
75342;SDS011;63936;51.006;13.764;2023-02-13T07:06:02;26;;;11;;
75342;SDS011;63936;51.006;13.764;2023-02-13T07:08:01;36;;;12;;
75342;SDS011;63936;51.006;13.764;2023-02-13T07:10:05;33;;;12;;
75342;SDS011;63936;51.006;13.764;2023-02-13T07:12:01;31;;;12;;
75342;SDS011;63936;51.006;13.764;2023-02-13T07:14:01;29;;;11;;
75342;SDS011;63936;51.006;13.764;2023-02-13T07:16:02;31;;;12;;
75342;SDS011;63936;51.006;13.764;2023-02-13T07:18:01;35;;;12;;
75342;SDS011;63936;51.006;13.764;2023-02-13T07:20:02;32;;;12;;
75342;SDS011;63936;51.006;13.764;2023-02-13T07:22:01;29;;;12;;
75342;SDS011;63936;51.006;13.764;2023-02-13T07:24:02;32;;;13;;
75342;SDS011;63936;51.006;13.764;2023-02-13T07:26:01;34;;;12;;
75342;SDS011;63936;51.006;13.764;2023-02-13T07:28:02;31;;;12;;
75342;SDS011;63936;51.006;13.764;2023-02-13T07:30:02;32;;;11;;
75342;SDS011;63936;51.006;13.764;2023-02-13T07:32:02;30;;;10;;
75342;SDS011;63936;51.006;13.764;2023-02-13T07:34:01;28;;;11;;
75342;SDS011;63936;51.006;13.764;2023-02-13T07:36:02;32;;;13;;
75342;SDS011;63936;51.006;13.764;2023-02-13T07:38:01;29;;;12;;
75342;SDS011;63936;51.006;13.764;2023-02-13T07:40:03;27;;;11;;
75342;SDS011;63936;51.006;13.764;2023-02-13T07:42:02;30;;;13;;
75342;SDS011;63936;51.006;13.764;2023-02-13T07:44:02;30;;;13;;
75342;SDS011;63936;51.006;13.764;2023-02-13T07:46:02;26;;;11;;
75342;SDS011;63936;51.006;13.764;2023-02-13T07:48:02;29;;;12;;
75342;SDS011;63936;51.006;13.764;2023-02-13T07:50:02;31;;;11;;
75342;SDS011;63936;51.006;13.764;2023-02-13T07:52:02;30;;;12;;
75342;SDS011;63936;51.006;13.764;2023-02-13T07:54:01;31;;;12;;
75342;SDS011;63936;51.006;13.764;2023-02-13T07:56:04;31;;;13;;
75342;SDS011;63936;51.006;13.764;2023-02-13T07:58:01;28;;;12;;
75342;SDS011;63936;51.006;13.764;2023-02-13T08:00:02;24;;;11;;
75342;SDS011;63936;51.006;13.764;2023-02-13T08:02:02;27;;;12;;
75342;SDS011;63936;51.006;13.764;2023-02-13T08:04:02;30;;;13;;
75342;SDS011;63936;51.006;13.764;2023-02-13T08:06:01;32;;;14;;
75342;SDS011;63936;51.006;13.764;2023-02-13T08:08:02;28;;;12;;
75342;SDS011;63936;51.006;13.764;2023-02-13T08:10:03;31;;;12;;
75342;SDS011;63936;51.006;13.764;2023-02-13T08:12:02;30;;;12;;
75342;SDS011;63936;51.006;13.764;2023-02-13T08:14:01;30;;;12;;
75342;SDS011;63936;51.006;13.764;2023-02-13T08:16:02;28;;;12;;
75342;SDS011;63936;51.006;13.764;2023-02-13T08:18:01;30;;;13;;
75342;SDS011;63936;51.006;13.764;2023-02-13T08:20:02;28;;;12;;
75342;SDS011;63936;51.006;13.764;2023-02-13T08:22:01;25;;;12;;
75342;SDS011;63936;51.006;13.764;2023-02-13T08:24:01;29;;;12;;
75342;SDS011;63936;51.006;13.764;2023-02-13T08:26:01;25;;;11;;
75342;SDS011;63936;51.006;13.764;2023-02-13T08:28:02;25;;;11;;
75342;SDS011;63936;51.006;13.764;2023-02-13T08:30:03;27;;;12;;
75342;SDS011;63936;51.006;13.764;2023-02-13T08:32:02;29;;;13;;
75342;SDS011;63936;51.006;13.764;2023-02-13T08:34:01;29;;;13;;
75342;SDS011;63936;51.006;13.764;2023-02-13T08:36:02;28;;;13;;
75342;SDS011;63936;51.006;13.764;2023-02-13T08:38:02;30;;;13;;
75342;SDS011;63936;51.006;13.764;2023-02-13T08:40:02;28;;;12;;
75342;SDS011;63936;51.006;13.764;2023-02-13T08:42:01;29;;;12;;
75342;SDS011;63936;51.006;13.764;2023-02-13T08:44:01;27;;;12;;
75342;SDS011;63936;51.006;13.764;2023-02-13T08:46:01;28;;;12;;
75342;SDS011;63936;51.006;13.764;2023-02-13T08:48:01;28;;;13;;
75342;SDS011;63936;51.006;13.764;2023-02-13T08:50:03;27;;;12;;
75342;SDS011;63936;51.006;13.764;2023-02-13T08:52:02;25;;;12;;
75342;SDS011;63936;51.006;13.764;2023-02-13T08:54:01;24;;;13;;
75342;SDS011;63936;51.006;13.764;2023-02-13T08:56:02;25;;;13;;
75342;SDS011;63936;51.006;13.764;2023-02-13T08:58:02;25;;;13;;
75342;SDS011;63936;51.006;13.764;2023-02-13T09:00:03;23;;;12;;
75342;SDS011;63936;51.006;13.764;2023-02-13T09:02:01;24;;;12;;
75342;SDS011;63936;51.006;13.764;2023-02-13T09:04:01;24;;;11;;
75342;SDS011;63936;51.006;13.764;2023-02-13T09:06:01;24;;;12;;
75342;SDS011;63936;51.006;13.764;2023-02-13T09:08:01;23;;;11;;
75342;SDS011;63936;51.006;13.764;2023-02-13T09:10:03;21;;;11;;
75342;SDS011;63936;51.006;13.764;2023-02-13T09:12:01;22;;;12;;
75342;SDS011;63936;51.006;13.764;2023-02-13T09:14:01;24;;;11;;
75342;SDS011;63936;51.006;13.764;2023-02-13T09:16:03;23;;;11;;
75342;SDS011;63936;51.006;13.764;2023-02-13T09:18:02;22;;;11;;
75342;SDS011;63936;51.006;13.764;2023-02-13T09:20:03;26;;;12;;
75342;SDS011;63936;51.006;13.764;2023-02-13T09:22:01;29;;;12;;
75342;SDS011;63936;51.006;13.764;2023-02-13T09:24:01;26;;;12;;
75342;SDS011;63936;51.006;13.764;2023-02-13T09:26:01;23;;;11;;
75342;SDS011;63936;51.006;13.764;2023-02-13T09:28:01;21;;;11;;
75342;SDS011;63936;51.006;13.764;2023-02-13T09:30:02;24;;;12;;
75342;SDS011;63936;51.006;13.764;2023-02-13T09:32:01;29;;;13;;
75342;SDS011;63936;51.006;13.764;2023-02-13T09:34:01;37;;;14;;
75342;SDS011;63936;51.006;13.764;2023-02-13T09:36:03;39;;;14;;
75342;SDS011;63936;51.006;13.764;2023-02-13T09:38:01;26;;;11;;
75342;SDS011;63936;51.006;13.764;2023-02-13T09:40:02;26;;;13;;
75342;SDS011;63936;51.006;13.764;2023-02-13T09:42:01;25;;;13;;
75342;SDS011;63936;51.006;13.764;2023-02-13T09:44:03;24;;;13;;
75342;SDS011;63936;51.006;13.764;2023-02-13T09:46:04;28;;;14;;
75342;SDS011;63936;51.006;13.764;2023-02-13T09:48:02;59;;;18;;
75342;SDS011;63936;51.006;13.764;2023-02-13T09:50:03;40;;;17;;
75342;SDS011;63936;51.006;13.764;2023-02-13T09:52:01;25;;;14;;
75342;SDS011;63936;51.006;13.764;2023-02-13T09:54:02;24;;;12;;
75342;SDS011;63936;51.006;13.764;2023-02-13T09:56:04;26;;;13;;
75342;SDS011;63936;51.006;13.764;2023-02-13T09:58:03;31;;;13;;
75342;SDS011;63936;51.006;13.764;2023-02-13T10:00:05;29;;;13;;
75342;SDS011;63936;51.006;13.764;2023-02-13T10:02:01;22;;;12;;
75342;SDS011;63936;51.006;13.764;2023-02-13T10:04:07;20;;;12;;
75342;SDS011;63936;51.006;13.764;2023-02-13T10:06:04;22;;;13;;
75342;SDS011;63936;51.006;13.764;2023-02-13T10:08:03;22;;;13;;
75342;SDS011;63936;51.006;13.764;2023-02-13T10:10:05;22;;;13;;
75342;SDS011;63936;51.006;13.764;2023-02-13T10:12:10;22;;;13;;
75342;SDS011;63936;51.006;13.764;2023-02-13T10:14:04;21;;;13;;
75342;SDS011;63936;51.006;13.764;2023-02-13T10:16:03;32;;;15;;
75342;SDS011;63936;51.006;13.764;2023-02-13T10:18:02;29;;;15;;
75342;SDS011;63936;51.006;13.764;2023-02-13T10:20:04;22;;;14;;
75342;SDS011;63936;51.006;13.764;2023-02-13T10:22:03;19;;;12;;
75342;SDS011;63936;51.006;13.764;2023-02-13T10:24:03;19;;;12;;
75342;SDS011;63936;51.006;13.764;2023-02-13T10:26:01;20;;;11;;
75342;SDS011;63936;51.006;13.764;2023-02-13T10:28:03;24;;;12;;
75342;SDS011;63936;51.006;13.764;2023-02-13T10:30:04;105;;;20;;
75342;SDS011;63936;51.006;13.764;2023-02-13T10:32:01;80;;;19;;
75342;SDS011;63936;51.006;13.764;2023-02-13T10:34:01;23;;;13;;
75342;SDS011;63936;51.006;13.764;2023-02-13T10:36:03;23;;;14;;
75342;SDS011;63936;51.006;13.764;2023-02-13T10:38:03;21;;;12;;
75342;SDS011;63936;51.006;13.764;2023-02-13T10:40:04;19;;;12;;
75342;SDS011;63936;51.006;13.764;2023-02-13T10:42:02;18;;;13;;
75342;SDS011;63936;51.006;13.764;2023-02-13T10:44:05;18;;;13;;
75342;SDS011;63936;51.006;13.764;2023-02-13T10:46:04;16;;;12;;
75342;SDS011;63936;51.006;13.764;2023-02-13T10:48:05;16;;;11;;
75342;SDS011;63936;51.006;13.764;2023-02-13T10:50:07;26;;;12;;
75342;SDS011;63936;51.006;13.764;2023-02-13T10:52:04;36;;;13;;
75342;SDS011;63936;51.006;13.764;2023-02-13T10:54:12;27;;;12;;
75342;SDS011;63936;51.006;13.764;2023-02-13T10:56:05;19;;;12;;
75342;SDS011;63936;51.006;13.764;2023-02-13T10:58:03;16;;;11;;
75342;SDS011;63936;51.006;13.764;2023-02-13T11:00:04;16;;;11;;
75342;SDS011;63936;51.006;13.764;2023-02-13T11:02:02;16;;;11;;
75342;SDS011;63936;51.006;13.764;2023-02-13T11:04:03;17;;;12;;
75342;SDS011;63936;51.006;13.764;2023-02-13T11:06:04;16;;;11;;
75342;SDS011;63936;51.006;13.764;2023-02-13T11:08:02;15;;;11;;
75342;SDS011;63936;51.006;13.764;2023-02-13T11:10:05;14;;;10;;
75342;SDS011;63936;51.006;13.764;2023-02-13T11:12:14;15;;;10;;
75342;SDS011;63936;51.006;13.764;2023-02-13T11:14:07;16;;;11;;
75342;SDS011;63936;51.006;13.764;2023-02-13T11:16:02;14;;;11;;
75342;SDS011;63936;51.006;13.764;2023-02-13T11:18:02;14;;;9;;
75342;SDS011;63936;51.006;13.764;2023-02-13T11:20:03;14;;;10;;
75342;SDS011;63936;51.006;13.764;2023-02-13T11:22:02;14;;;10;;
75342;SDS011;63936;51.006;13.764;2023-02-13T11:24:01;14;;;10;;
75342;SDS011;63936;51.006;13.764;2023-02-13T11:26:02;15;;;8;;
75342;SDS011;63936;51.006;13.764;2023-02-13T11:28:06;15;;;8;;
75342;SDS011;63936;51.006;13.764;2023-02-13T11:30:04;12;;;8;;
75342;SDS011;63936;51.006;13.764;2023-02-13T11:32:05;12;;;8;;
75342;SDS011;63936;51.006;13.764;2023-02-13T11:34:16;12;;;8;;
75342;SDS011;63936;51.006;13.764;2023-02-13T11:36:04;12;;;8;;
75342;SDS011;63936;51.006;13.764;2023-02-13T11:38:09;12;;;8;;
75342;SDS011;63936;51.006;13.764;2023-02-13T11:40:20;12;;;9;;
75342;SDS011;63936;51.006;13.764;2023-02-13T11:42:01;13;;;9;;
75342;SDS011;63936;51.006;13.764;2023-02-13T11:44:01;13;;;9;;
75342;SDS011;63936;51.006;13.764;2023-02-13T11:46:02;13;;;9;;
75342;SDS011;63936;51.006;13.764;2023-02-13T11:48:02;12;;;9;;
75342;SDS011;63936;51.006;13.764;2023-02-13T11:50:04;12;;;8;;
75342;SDS011;63936;51.006;13.764;2023-02-13T11:52:02;12;;;8;;
75342;SDS011;63936;51.006;13.764;2023-02-13T11:54:02;11;;;7;;
75342;SDS011;63936;51.006;13.764;2023-02-13T11:56:03;11;;;7;;
75342;SDS011;63936;51.006;13.764;2023-02-13T11:58:02;11;;;8;;
75342;SDS011;63936;51.006;13.764;2023-02-13T12:00:24;11;;;8;;
75342;SDS011;63936;51.006;13.764;2023-02-13T12:02:03;10;;;6;;
75342;SDS011;63936;51.006;13.764;2023-02-13T12:04:03;10;;;6;;
75342;SDS011;63936;51.006;13.764;2023-02-13T12:06:03;9;;;6;;
75342;SDS011;63936;51.006;13.764;2023-02-13T12:08:04;9;;;6;;
75342;SDS011;63936;51.006;13.764;2023-02-13T12:10:06;8;;;6;;
75342;SDS011;63936;51.006;13.764;2023-02-13T12:12:02;8;;;6;;
75342;SDS011;63936;51.006;13.764;2023-02-13T12:14:02;8;;;5;;
75342;SDS011;63936;51.006;13.764;2023-02-13T12:16:02;8;;;5;;
75342;SDS011;63936;51.006;13.764;2023-02-13T12:18:02;8;;;5;;
75342;SDS011;63936;51.006;13.764;2023-02-13T12:20:02;7;;;5;;
75342;SDS011;63936;51.006;13.764;2023-02-13T12:22:07;7;;;5;;
75342;SDS011;63936;51.006;13.764;2023-02-13T12:24:02;8;;;6;;
75342;SDS011;63936;51.006;13.764;2023-02-13T12:26:06;8;;;6;;
75342;SDS011;63936;51.006;13.764;2023-02-13T12:28:05;8;;;6;;
75342;SDS011;63936;51.006;13.764;2023-02-13T12:30:08;10;;;5;;
75342;SDS011;63936;51.006;13.764;2023-02-13T12:32:03;9;;;5;;
75342;SDS011;63936;51.006;13.764;2023-02-13T12:34:08;8;;;6;;
75342;SDS011;63936;51.006;13.764;2023-02-13T12:36:04;8;;;6;;
75342;SDS011;63936;51.006;13.764;2023-02-13T12:38:02;8;;;6;;